Time;durP1;ratioP1;P1;durP2;ratioP2;P2;SDS_P1;SDS_P2;PMS_P1;PMS_P2;Temp;Humidity;BMP_temperature;BMP_pressure;BME280_temperature;BME280_humidity;BME280_pressure;Samples;Min_cycle;Max_cycle;Signal;HPM_P1;HPM_P2
2021/09/23 17:00:30;;;;;;;24.88;6.55;;;40.60;35.80;;;;;;5089428;28;20408;-69
2021/09/23 17:03:05;;;;;;;22.65;6.50;;;40.10;44.60;;;;;;5071626;28;20513;-68
2021/09/23 17:05:32;;;;;;;28.75;6.32;;;39.90;39.00;;;;;;5066655;28;20100;-66
2021/09/23 17:07:59;;;;;;;22.40;5.28;;;39.80;41.70;;;;;;5070368;28;20505;-67
2021/09/23 17:10:25;;;;;;;16.50;5.32;;;40.70;40.20;;;;;;5070881;28;20060;-66
2021/09/23 17:12:51;;;;;;;20.58;5.35;;;40.90;37.40;;;;;;5068902;28;20090;-66
2021/09/23 17:15:20;;;;;;;28.48;5.65;;;;;;;;;;5052235;28;20505;-64
2021/09/23 17:17:47;;;;;;;22.25;5.03;;;39.30;45.60;;;;;;5068530;28;20028;-64
2021/09/23 17:20:14;;;;;;;32.95;5.22;;;39.40;42.50;;;;;;5051987;28;20105;-63
2021/09/23 17:22:40;;;;;;;34.85;5.40;;;40.50;38.90;;;;;;5069929;28;20066;-63
2021/09/23 17:25:08;;;;;;;25.42;4.55;;;40.60;37.70;;;;;;5051747;28;20045;-64
2021/09/23 17:27:35;;;;;;;14.10;4.45;;;41.40;37.10;;;;;;5068574;28;20036;-63
2021/09/23 17:30:03;;;;;;;23.48;4.55;;;43.20;33.40;;;;;;5068633;28;20031;-62
2021/09/23 17:32:29;;;;;;;29.25;6.15;;;44.20;48.40;;;;;;5068341;28;20048;-63
2021/09/23 17:34:55;;;;;;;18.50;4.70;;;45.30;67.40;;;;;;5068418;28;20028;-63
2021/09/23 17:37:22;;;;;;;33.72;4.40;;;;;;;;;;5068350;28;20025;-63
2021/09/23 17:39:48;;;;;;;24.15;4.00;;;;;;;;;;5068411;28;20031;-63
2021/09/23 17:42:15;;;;;;;30.08;4.43;;;46.70;50.60;;;;;;5068606;28;20024;-63
2021/09/23 17:44:42;;;;;;;13.85;3.75;;;46.60;34.00;;;;;;5051678;28;20024;-62
2021/09/23 17:47:09;;;;;;;21.85;4.55;;;48.40;33.00;;;;;;5051408;28;20057;-63
2021/09/23 17:49:35;;;;;;;27.17;4.47;;;47.00;27.90;;;;;;5051553;28;20518;-65
2021/09/23 17:52:02;;;;;;;19.15;5.07;;;47.20;27.90;;;;;;5068383;28;20039;-66
2021/09/23 17:54:28;;;;;;;15.05;4.60;;;47.10;27.20;;;;;;5069375;28;20025;-66
2021/09/23 17:56:54;;;;;;;24.20;4.07;;;44.80;44.70;;;;;;5067909;28;20037;-64
2021/09/23 17:59:21;;;;;;;15.57;4.20;;;;;;;;;;5067491;28;20041;-64
2021/09/23 18:01:47;;;;;;;17.98;4.00;;;;;;;;;;5067722;28;20021;-69
2021/09/23 18:04:14;;;;;;;15.60;3.88;;;;;;;;;;5067710;28;20024;-66
2021/09/23 18:06:41;;;;;;;25.40;4.00;;;41.10;45.90;;;;;;5068893;28;20028;-65
2021/09/23 18:09:09;;;;;;;15.88;4.57;;;;;;;;;;5067646;28;20046;-69
2021/09/23 18:11:35;;;;;;;19.23;4.20;;;;;;;;;;5039473;28;20408;-69
2021/09/23 18:14:02;;;;;;;16.05;3.90;;;39.20;70.30;;;;;;5055441;28;20027;-70
2021/09/23 18:16:28;;;;;;;11.20;3.85;;;;;;;;;;5054562;28;20501;-69
2021/09/23 18:18:55;;;;;;;14.30;3.85;;;;;;;;;;5054314;28;20410;-67
2021/09/23 18:21:21;;;;;;;10.77;4.38;;;;;;;;;;5054215;28;20017;-70
2021/09/23 18:23:48;;;;;;;13.82;4.13;;;;;;;;;;5054319;28;20391;-66
2021/09/23 18:28:53;;;;;;;61.28;4.82;;;36.40;59.20;;;;;;5110904;27;20442;-65
2021/09/23 18:31:23;;;;;;;51.55;7.18;;;36.20;64.30;;;;;;5109975;28;20083;-64
2021/09/23 18:33:50;;;;;;;31.90;6.25;;;35.90;52.00;;;;;;5110898;28;20023;-64
2021/09/23 18:36:17;;;;;;;36.40;6.03;;;35.50;55.10;;;;;;5109590;28;20094;-65
2021/09/23 18:38:43;;;;;;;33.95;6.20;;;34.20;81.50;;;;;;5110943;28;20114;-64
2021/09/23 18:41:09;;;;;;;22.95;5.55;;;34.30;60.60;;;;;;5110617;28;20038;-63
2021/09/23 18:43:36;;;;;;;24.00;6.25;;;34.10;60.30;;;;;;5109052;28;20166;-65
2021/09/23 18:46:02;;;;;;;28.85;6.32;;;34.00;59.90;;;;;;5109218;28;20139;-64
2021/09/23 18:48:29;;;;;;;25.90;7.15;;;33.90;57.90;;;;;;5108950;28;20098;-64
2021/09/23 18:50:56;;;;;;;27.48;6.00;;;33.30;95.20;;;;;;5110170;28;20534;-63
2021/09/23 18:53:22;;;;;;;31.27;6.43;;;;;;;;;;5109005;28;20161;-63
2021/09/23 18:55:49;;;;;;;17.70;5.00;;;33.00;54.50;;;;;;5108606;28;20024;-63
2021/09/23 18:58:15;;;;;;;25.77;5.53;;;33.00;55.00;;;;;;5108536;28;20070;-62
2021/09/23 19:00:42;;;;;;;30.42;7.75;;;33.00;53.20;;;;;;5108838;28;20059;-63
2021/09/23 19:03:11;;;;;;;27.80;7.38;;;33.00;55.10;;;;;;5108508;28;20023;-65
2021/09/23 19:05:38;;;;;;;24.75;8.38;;;33.20;82.60;;;;;;5108741;28;20030;-62
2021/09/23 19:08:04;;;;;;;28.25;6.18;;;33.50;57.20;;;;;;5108369;28;20145;-65
2021/09/23 19:10:31;;;;;;;22.92;6.65;;;34.10;62.00;;;;;;5108667;28;20092;-64
2021/09/23 19:12:57;;;;;;;26.23;5.82;;;33.90;77.60;;;;;;5108084;28;20071;-62
2021/09/23 19:15:24;;;;;;;30.83;7.57;;;34.00;53.80;;;;;;5109943;28;20366;-64
2021/09/23 19:17:51;;;;;;;26.13;7.85;;;34.00;54.40;;;;;;5108402;28;20654;-65
2021/09/23 19:20:19;;;;;;;21.90;6.45;;;34.00;51.10;;;;;;5109538;28;20099;-65
2021/09/23 19:22:46;;;;;;;35.45;10.50;;;33.90;72.70;;;;;;5091612;28;20082;-65
2021/09/23 19:25:13;;;;;;;67.70;31.67;;;34.00;50.70;;;;;;5107938;28;20087;-66
2021/09/23 19:27:40;;;;;;;25.23;6.35;;;34.00;51.90;;;;;;5107398;28;20110;-65
2021/09/23 19:30:08;;;;;;;19.55;6.43;;;34.00;60.70;;;;;;5107955;28;20163;-65
2021/09/23 19:32:36;;;;;;;14.30;5.05;;;34.90;54.90;;;;;;5108109;28;20086;-66
2021/09/23 19:35:02;;;;;;;22.92;4.43;;;34.70;49.50;;;;;;5110160;28;20088;-66
2021/09/23 19:37:29;;;;;;;10.05;4.93;;;35.70;65.00;;;;;;5107828;28;20051;-67
2021/09/23 19:39:55;;;;;;;17.30;4.72;;;36.30;65.50;;;;;;5095611;28;20078;-67
2021/09/23 19:42:22;;;;;;;28.23;7.05;;;33.20;52.00;;;;;;5093744;28;20081;-64
2021/09/23 19:44:48;;;;;;;16.73;4.80;;;36.70;47.00;;;;;;5094034;28;20024;-64
2021/09/23 19:47:14;;;;;;;15.85;4.00;;;37.30;69.10;;;;;;5077199;28;20024;-66
2021/09/23 19:49:41;;;;;;;14.90;4.40;;;37.40;68.60;;;;;;5093959;28;20024;-65
2021/09/23 19:52:07;;;;;;;10.50;4.13;;;38.00;59.80;;;;;;5095470;28;20024;-66
2021/09/23 19:54:37;;;;;;;14.68;4.70;;;37.90;46.60;;;;;;5094283;28;20027;-66
2021/09/23 19:57:08;;;;;;;14.63;4.80;;;37.80;35.20;;;;;;5093820;28;20115;-64
2021/09/23 19:59:35;;;;;;;14.93;4.38;;;38.30;58.30;;;;;;5094118;28;20524;-66
2021/09/23 20:02:02;;;;;;;15.52;3.95;;;38.90;37.50;;;;;;5077318;28;20092;-68
2021/09/23 20:04:28;;;;;;;20.75;3.95;;;38.50;51.60;;;;;;5095268;28;20027;-66
2021/09/23 20:06:55;;;;;;;19.15;4.30;;;38.30;62.10;;;;;;5095056;28;20036;-64
2021/09/23 20:09:21;;;;;;;15.63;4.10;;;39.10;36.40;;;;;;5093693;28;20493;-64
2021/09/23 20:11:48;;;;;;;19.23;3.92;;;39.30;44.60;;;;;;5093439;28;20366;-65
2021/09/23 20:14:15;;;;;;;25.00;3.75;;;39.00;59.60;;;;;;5093284;28;20031;-66
2021/09/23 20:16:42;;;;;;;18.27;2.58;;;39.10;60.70;;;;;;5093407;28;20163;-64
2021/09/23 20:19:11;;;;;;;9.32;2.65;;;38.80;38.90;;;;;;5093092;28;20091;-61
2021/09/23 20:21:38;;;;;;;16.65;3.25;;;39.50;45.10;;;;;;5093286;28;20435;-65
2021/09/23 20:24:05;;;;;;;19.33;2.55;;;40.10;56.60;;;;;;5094710;28;20016;-66
2021/09/23 20:26:31;;;;;;;22.10;2.72;;;39.60;36.00;;;;;;5076263;28;20089;-64
2021/09/23 20:28:58;;;;;;;53.88;4.18;;;40.10;41.90;;;;;;5093220;28;20059;-65
2021/09/23 20:31:25;;;;;;;22.85;3.05;;;39.70;57.30;;;;;;5094259;28;20084;-66
2021/09/23 20:33:52;;;;;;;36.85;3.08;;;40.10;61.60;;;;;;5093198;28;20024;-66
2021/09/23 20:36:20;;;;;;;40.78;4.03;;;40.30;57.90;;;;;;5094933;28;20054;-68
2021/09/23 20:38:46;;;;;;;41.85;3.78;;;;;;;;;;5093211;28;20077;-64
2021/09/23 20:41:13;;;;;;;81.70;5.45;;;39.20;38.50;;;;;;5092703;28;20028;-66
2021/09/23 20:43:39;;;;;;;77.05;5.88;;;39.40;68.30;;;;;;5076010;28;20035;-68
2021/09/23 20:46:06;;;;;;;60.17;5.20;;;39.10;43.70;;;;;;5092511;28;20115;-67
2021/09/23 20:48:33;;;;;;;64.05;5.55;;;39.70;63.00;;;;;;5092485;28;20099;-65
2021/09/23 20:50:59;;;;;;;82.13;6.57;;;39.00;66.00;;;;;;5093327;28;20037;-66
2021/09/23 20:53:25;;;;;;;90.97;6.30;;;38.90;66.00;;;;;;5092719;28;20061;-66
2021/09/23 20:55:54;;;;;;;62.67;6.00;;;;;;;;;;5093334;28;20397;-66
2021/09/23 20:58:27;;;;;;;70.43;5.68;;;38.10;50.60;;;;;;5092814;28;20444;-67
2021/09/23 21:00:55;;;;;;;82.18;5.88;;;37.90;38.70;;;;;;5092585;28;20059;-64
2021/09/23 21:03:22;;;;;;;81.68;6.68;;;37.80;39.30;;;;;;5092430;28;20061;-65
2021/09/23 21:05:50;;;;;;;66.43;5.80;;;37.80;53.80;;;;;;5092043;28;20020;-65
2021/09/23 21:08:17;;;;;;;76.40;6.57;;;37.40;45.50;;;;;;5093188;28;20030;-65
2021/09/23 21:10:46;;;;;;;84.30;6.00;;;37.10;42.20;;;;;;5093220;28;20456;-64
2021/09/23 21:13:12;;;;;;;69.57;6.55;;;37.00;38.70;;;;;;5075214;28;20073;-65
2021/09/23 21:15:39;;;;;;;76.10;6.18;;;37.00;39.30;;;;;;5093653;28;20078;-67
2021/09/23 21:18:05;;;;;;;53.25;4.85;;;36.80;49.40;;;;;;5092079;28;20080;-66
2021/09/23 21:20:32;;;;;;;64.13;6.00;;;36.70;38.50;;;;;;5092070;28;20024;-65
2021/09/23 21:22:58;;;;;;;76.90;5.80;;;;;;;;;;5091741;28;20055;-64
2021/09/23 21:25:25;;;;;;;95.93;6.13;;;36.50;42.10;;;;;;5092113;28;20036;-67
2021/09/23 21:27:51;;;;;;;82.18;5.68;;;36.40;38.20;;;;;;5091933;28;20121;-68
2021/09/23 21:30:19;;;;;;;66.03;5.18;;;36.30;38.60;;;;;;5092604;28;20020;-69
2021/09/23 21:32:46;;;;;;;66.78;4.55;;;36.20;37.90;;;;;;5092439;28;20040;-68
2021/09/23 21:35:15;;;;;;;58.45;5.10;;;35.80;38.30;;;;;;5092488;28;20082;-69
2021/09/23 21:37:41;;;;;;;64.97;5.93;;;36.20;54.40;;;;;;5091989;28;20078;-69
2021/09/23 21:40:15;;;;;;;75.38;6.05;;;36.20;41.10;;;;;;5092077;28;20427;-67
2021/09/23 21:42:42;;;;;;;71.10;6.82;;;36.00;43.10;;;;;;5093278;28;20162;-68
2021/09/23 21:45:10;;;;;;;75.47;5.75;;;35.60;38.00;;;;;;5075591;28;20449;-68
2021/09/23 21:47:38;;;;;;;71.05;5.82;;;35.50;50.10;;;;;;5091921;28;20077;-71
2021/09/23 21:50:06;;;;;;;72.32;5.95;;;35.90;38.40;;;;;;5075449;28;20106;-67
2021/09/23 21:52:33;;;;;;;59.72;6.00;;;36.10;38.60;;;;;;5092141;28;20106;-68
2021/09/23 21:54:59;;;;;;;55.80;6.13;;;35.70;38.50;;;;;;5092120;28;20068;-69
2021/09/23 21:57:26;;;;;;;66.22;5.68;;;;;;;;;;5093209;28;20117;-69
2021/09/23 21:59:52;;;;;;;51.40;5.55;;;35.60;58.60;;;;;;5093427;28;20028;-67
2021/09/23 22:02:19;;;;;;;69.07;6.38;;;35.70;38.00;;;;;;5093264;28;20470;-70
2021/09/23 22:04:45;;;;;;;51.65;5.63;;;35.60;37.60;;;;;;5091387;28;20081;-68
2021/09/23 22:07:12;;;;;;;67.95;5.47;;;35.40;47.20;;;;;;5091201;28;20032;-66
2021/09/23 22:09:38;;;;;;;68.43;6.45;;;35.70;54.80;;;;;;5091480;28;20039;-67
2021/09/23 22:12:08;;;;;;;72.38;6.55;;;35.50;38.40;;;;;;5091219;28;20173;-68
2021/09/23 22:14:36;;;;;;;82.07;6.75;;;35.50;38.60;;;;;;5075170;28;20027;-70
2021/09/23 22:17:03;;;;;;;69.80;6.63;;;35.50;37.90;;;;;;5075019;28;20158;-69
2021/09/23 22:19:30;;;;;;;67.25;6.15;;;35.30;40.60;;;;;;5091331;28;20134;-69
2021/09/23 22:21:56;;;;;;;81.25;6.28;;;;;;;;;;5091387;28;20054;-68
2021/09/23 22:24:23;;;;;;;82.32;6.88;;;35.40;37.70;;;;;;5091347;28;20028;-67
2021/09/23 22:26:49;;;;;;;68.00;6.93;;;;;;;;;;5092503;28;20056;-66
2021/09/23 22:29:16;;;;;;;58.80;6.75;;;35.40;43.40;;;;;;5092606;28;20432;-66
2021/09/23 22:31:42;;;;;;;90.45;7.80;;;35.30;54.90;;;;;;5091048;28;20535;-66
2021/09/23 22:34:08;;;;;;;70.95;9.13;;;35.30;38.50;;;;;;5092963;28;20448;-64
2021/09/23 22:36:35;;;;;;;80.65;8.48;;;35.40;37.90;;;;;;5091140;28;20020;-61
2021/09/23 22:39:01;;;;;;;68.85;8.75;;;;;;;;;;5091200;28;20020;-64
2021/09/23 22:41:28;;;;;;;82.25;9.63;;;;;;;;;;5091438;28;20028;-65
2021/09/23 22:43:54;;;;;;;84.03;10.95;;;35.10;37.60;;;;;;5091685;28;20121;-65
2021/09/23 22:46:21;;;;;;;83.13;8.57;;;35.10;55.30;;;;;;5088057;28;20105;-66
2021/09/23 22:48:48;;;;;;;81.50;10.43;;;;;;;;;;5092217;28;20016;-68
2021/09/23 22:51:14;;;;;;;64.07;8.68;;;;;;;;;;5091385;28;20051;-65
2021/09/23 22:53:41;;;;;;;68.70;9.02;;;;;;;;;;5091435;28;20024;-66
2021/09/23 22:56:07;;;;;;;72.45;7.70;;;35.20;38.40;;;;;;5091104;28;20021;-65
2021/09/23 22:58:34;;;;;;;87.55;7.97;;;35.00;40.90;;;;;;5091199;28;20127;-66
2021/09/23 23:01:01;;;;;;;68.03;6.32;;;35.00;38.50;;;;;;5091121;28;20459;-66
2021/09/23 23:03:28;;;;;;;57.88;6.80;;;35.30;68.40;;;;;;5074387;28;20478;-63
2021/09/23 23:05:54;;;;;;;53.75;5.32;;;;;;;;;;5092325;28;20056;-66
2021/09/23 23:08:20;;;;;;;61.42;5.05;;;34.80;43.40;;;;;;5091589;28;20035;-67
2021/09/23 23:10:47;;;;;;;73.05;5.57;;;34.90;56.00;;;;;;5091393;28;20024;-69
2021/09/23 23:13:13;;;;;;;52.00;5.68;;;34.70;48.70;;;;;;5091175;28;20032;-67
2021/09/23 23:15:39;;;;;;;50.88;5.40;;;34.80;39.20;;;;;;5092219;28;20156;-67
2021/09/23 23:18:06;;;;;;;77.03;6.32;;;34.70;67.20;;;;;;5058105;28;20047;-62
2021/09/23 23:20:32;;;;;;;56.58;5.18;;;34.80;38.70;;;;;;5075640;28;20092;-61
2021/09/23 23:22:59;;;;;;;46.30;4.82;;;;;;;;;;5076096;28;20526;-63
2021/09/23 23:25:25;;;;;;;49.95;5.75;;;34.70;38.70;;;;;;5074587;28;20114;-62
2021/09/23 23:27:52;;;;;;;31.75;4.80;;;34.70;39.10;;;;;;5074515;28;20138;-61
2021/09/23 23:30:19;;;;;;;65.57;5.32;;;;;;;;;;5074511;28;20020;-63
2021/09/23 23:32:45;;;;;;;48.78;6.15;;;;;;;;;;5074348;28;20118;-62
2021/09/23 23:35:12;;;;;;;38.83;4.80;;;34.60;38.70;;;;;;5088844;28;20062;-66
2021/09/23 23:37:39;;;;;;;40.78;4.93;;;34.50;38.70;;;;;;5094645;28;20065;-62
2021/09/23 23:40:07;;;;;;;38.17;5.10;;;34.50;62.40;;;;;;5094531;28;20076;-63
2021/09/23 23:42:34;;;;;;;33.35;4.90;;;34.40;42.30;;;;;;5094646;28;20064;-62
2021/09/23 23:45:02;;;;;;;31.75;3.95;;;34.70;46.50;;;;;;5094516;28;20492;-64
2021/09/23 23:47:28;;;;;;;41.38;4.85;;;34.50;63.20;;;;;;5095523;28;20028;-64
2021/09/23 23:49:55;;;;;;;39.95;4.90;;;34.20;56.70;;;;;;5094451;28;20539;-63
2021/09/23 23:52:21;;;;;;;45.90;5.03;;;34.20;56.90;;;;;;5095924;28;20020;-63
2021/09/23 23:54:48;;;;;;;32.78;4.15;;;34.00;59.00;;;;;;5077375;28;20148;-63
